createdAt,value
2022-11-27T00:01:00.142Z,100922.66
2022-11-27T00:03:28.180Z,100914.84
2022-11-27T00:05:55.986Z,100917.66
2022-11-27T00:08:23.668Z,100906.34
2022-11-27T00:10:51.298Z,100909.84
2022-11-27T00:13:19.424Z,100909.06
2022-11-27T00:15:48.029Z,100912.78
2022-11-27T00:18:15.973Z,100919.06
2022-11-27T00:20:43.665Z,100905.91
2022-11-27T00:23:11.341Z,100904.34
2022-11-27T00:25:39.330Z,100895.75
2022-11-27T00:28:07.056Z,100902.09
2022-11-27T00:30:34.795Z,100893.44
2022-11-27T00:33:02.486Z,100898.88
2022-11-27T00:35:30.185Z,100892.88
2022-11-27T00:37:58.217Z,100891.28
2022-11-27T00:40:29.251Z,100885.28
2022-11-27T00:42:56.940Z,100881.09
2022-11-27T00:45:24.613Z,100893.53
2022-11-27T00:47:52.337Z,100891.81
2022-11-27T00:50:20.050Z,100883.03
2022-11-27T00:52:49.205Z,100882.19
2022-11-27T00:55:16.916Z,100884.03
2022-11-27T00:57:44.691Z,100891.09
2022-11-27T01:00:12.405Z,100891.25
2022-11-27T01:02:40.316Z,100869.41
2022-11-27T01:05:08.150Z,100865.03
2022-11-27T01:07:35.896Z,100863.28
2022-11-27T01:10:03.620Z,100873.94
2022-11-27T01:12:31.326Z,100870.50
2022-11-27T01:14:58.941Z,100864.50
2022-11-27T01:17:26.601Z,100861.94
2022-11-27T01:19:54.352Z,100872.63
2022-11-27T01:22:21.978Z,100877.16
2022-11-27T01:24:49.592Z,100882.75
2022-11-27T01:27:17.642Z,100888.19
2022-11-27T01:29:45.992Z,100885.84
2022-11-27T01:32:13.643Z,100891.31
2022-11-27T01:34:41.545Z,100885.16
2022-11-27T01:37:09.450Z,100887.94
2022-11-27T01:39:37.411Z,100878.38
2022-11-27T01:42:05.056Z,100869.78
2022-11-27T01:44:32.688Z,100858.50
2022-11-27T01:47:00.693Z,100868.06
2022-11-27T01:49:28.410Z,100864.25
2022-11-27T01:51:56.407Z,100854.47
2022-11-27T01:54:25.374Z,100849.16
2022-11-27T01:56:53.004Z,100849.28
2022-11-27T01:59:20.582Z,100859.84
2022-11-27T02:01:48.269Z,100857.22
2022-11-27T02:04:16.135Z,100866.09
2022-11-27T02:06:43.747Z,100864.41
2022-11-27T02:09:11.706Z,100863.72
2022-11-27T02:11:39.380Z,100857.78
2022-11-27T02:14:06.939Z,100863.31
2022-11-27T02:16:34.908Z,100854.75
2022-11-27T02:19:03.822Z,100846.81
2022-11-27T02:21:31.421Z,100850.97
2022-11-27T02:23:59.007Z,100842.88
2022-11-27T02:26:26.754Z,100832.09
2022-11-27T02:28:54.760Z,100826.53
2022-11-27T02:31:25.618Z,100820.09
2022-11-27T02:33:53.345Z,100816.47
2022-11-27T02:36:20.915Z,100819.84
2022-11-27T02:38:48.528Z,100806.56
2022-11-27T02:41:16.552Z,100812.75
2022-11-27T02:43:44.321Z,100802.22
2022-11-27T02:46:11.992Z,100811.06
2022-11-27T02:48:39.669Z,100804.06
2022-11-27T02:51:07.267Z,100809.19
2022-11-27T02:53:35.904Z,100803.06
2022-11-27T02:56:04.294Z,100809.34
2022-11-27T02:58:31.894Z,100791.91
2022-11-27T03:00:59.475Z,100795.56
2022-11-27T03:03:27.120Z,100788.63
2022-11-27T03:05:55.072Z,100778.09
2022-11-27T03:08:22.677Z,100767.63
2022-11-27T03:10:50.270Z,100769.44
2022-11-27T03:13:17.832Z,100765.81
2022-11-27T03:15:45.865Z,100755.25
2022-11-27T03:18:14.117Z,100750.75
2022-11-27T03:20:41.671Z,100744.34
2022-11-27T03:23:09.227Z,100744.94
2022-11-27T03:25:36.836Z,100748.28
2022-11-27T03:28:04.382Z,100735.00
2022-11-27T03:30:32.291Z,100739.34
2022-11-27T03:32:59.906Z,100732.97
2022-11-27T03:35:27.470Z,100729.09
2022-11-27T03:37:55.409Z,100727.03
2022-11-27T03:40:23.113Z,100726.66
2022-11-27T03:42:51.144Z,100728.09
2022-11-27T03:45:20.767Z,100731.31
2022-11-27T03:47:48.447Z,100738.09
2022-11-27T03:50:16.084Z,100729.81
2022-11-27T03:52:43.642Z,100732.34
2022-11-27T03:55:11.562Z,100721.66
2022-11-27T03:57:40.315Z,100716.25
2022-11-27T04:00:08.275Z,100720.22
2022-11-27T04:02:35.880Z,100724.22
2022-11-27T04:05:03.444Z,100718.63
2022-11-27T04:07:31.075Z,100718.41
2022-11-27T04:09:58.758Z,100729.75
2022-11-27T04:12:26.346Z,100714.69
2022-11-27T04:14:53.949Z,100715.53
2022-11-27T04:17:21.551Z,100725.97
2022-11-27T04:19:49.560Z,100740.91
2022-11-27T04:22:17.135Z,100731.16
2022-11-27T04:24:44.720Z,100721.47
2022-11-27T04:27:12.272Z,100720.59
2022-11-27T04:29:39.816Z,100707.38
2022-11-27T04:32:07.765Z,100723.09
2022-11-27T04:34:35.907Z,100708.78
2022-11-27T04:37:03.494Z,100709.66
2022-11-27T04:39:31.141Z,100716.72
2022-11-27T04:41:58.689Z,100715.00
2022-11-27T04:44:27.026Z,100707.13
2022-11-27T04:46:55.185Z,100693.84
2022-11-27T04:49:22.804Z,100692.84
2022-11-27T04:51:50.366Z,100691.97
2022-11-27T04:54:18.019Z,100684.22
2022-11-27T04:56:45.930Z,100684.34
2022-11-27T04:59:13.497Z,100675.56
2022-11-27T05:01:41.088Z,100679.91
2022-11-27T05:04:08.660Z,100686.84
2022-11-27T05:06:36.578Z,100674.41
2022-11-27T05:09:04.546Z,100669.69
2022-11-27T05:11:33.879Z,100664.03
2022-11-27T05:14:17.093Z,100667.38
2022-11-27T05:16:44.641Z,100649.44
2022-11-27T05:19:12.246Z,100638.69
2022-11-27T05:21:39.983Z,100635.16
2022-11-27T05:24:07.547Z,100637.03
2022-11-27T05:26:35.114Z,100633.63
2022-11-27T05:29:02.719Z,100633.78
2022-11-27T05:31:30.725Z,100628.50
2022-11-27T05:33:58.945Z,100621.47
2022-11-27T05:36:26.550Z,100618.13
2022-11-27T05:38:54.126Z,100615.59
2022-11-27T05:41:21.702Z,100618.06
2022-11-27T05:43:49.657Z,100610.44
2022-11-27T05:46:17.279Z,100611.84
2022-11-27T05:48:45.241Z,100601.75
2022-11-27T05:51:12.846Z,100593.56
2022-11-27T05:53:40.449Z,100580.16
2022-11-27T05:56:08.359Z,100594.00
2022-11-27T05:58:35.990Z,100593.84
2022-11-27T06:01:03.582Z,100591.72
2022-11-27T06:03:31.214Z,100592.41
2022-11-27T06:05:58.826Z,100589.59
2022-11-27T06:08:26.776Z,100581.50
2022-11-27T06:10:54.641Z,100581.31
2022-11-27T06:13:22.231Z,100582.00
2022-11-27T06:15:49.850Z,100591.56
2022-11-27T06:18:17.586Z,100588.94
2022-11-27T06:20:50.208Z,100575.69
2022-11-27T06:23:22.457Z,100587.13
2022-11-27T06:25:50.084Z,100586.28
2022-11-27T06:28:17.659Z,100580.97
2022-11-27T06:30:45.627Z,100569.53
2022-11-27T06:33:13.774Z,100574.81
2022-11-27T06:35:44.700Z,100574.06
2022-11-27T06:38:12.261Z,100568.75
2022-11-27T06:40:39.886Z,100567.06
2022-11-27T06:43:07.718Z,100565.34
2022-11-27T06:45:35.424Z,100582.19
2022-11-27T06:48:03.138Z,100593.63
2022-11-27T06:50:30.751Z,100590.03
2022-11-27T06:52:58.336Z,100594.28
2022-11-27T06:55:26.706Z,100584.38
2022-11-27T06:57:54.271Z,100582.50
2022-11-27T07:00:24.220Z,100573.53
2022-11-27T07:02:53.189Z,100569.88
2022-11-27T07:05:20.753Z,100567.03
2022-11-27T10:46:15.600Z,100367.31
2022-11-27T10:48:43.361Z,100363.50
2022-11-27T10:51:11.088Z,100370.09
2022-11-27T10:53:39.056Z,100361.66
2022-11-27T10:56:06.727Z,100352.22
2022-11-27T10:58:35.456Z,100340.31
2022-11-27T11:01:03.499Z,100346.75
2022-11-27T11:03:31.415Z,100338.31
2022-11-27T11:08:48.019Z,100337.75
2022-11-27T11:11:15.940Z,100339.13
2022-11-27T11:13:43.900Z,100332.47
2022-11-27T11:16:14.664Z,100334.56
2022-11-27T11:18:42.877Z,100328.66
2022-11-27T11:21:12.442Z,100330.97
2022-11-27T11:23:40.332Z,100322.00
2022-11-27T11:26:08.401Z,100325.41
2022-11-27T11:28:39.495Z,100322.00
2022-11-27T11:31:07.600Z,100316.03
2022-11-27T11:33:35.859Z,100317.88
2022-11-27T11:36:03.756Z,100317.13
2022-11-27T11:38:31.711Z,100308.41
2022-11-27T11:40:59.580Z,100302.25
2022-11-27T11:43:27.388Z,100298.00
2022-11-27T11:45:57.020Z,100299.94
2022-11-27T11:48:24.976Z,100292.03
2022-11-27T11:50:52.933Z,100289.47
2022-11-27T11:53:20.894Z,100281.50
2022-11-27T11:55:48.789Z,100277.84
2022-11-27T11:58:17.604Z,100266.22
2022-11-27T12:01:11.408Z,100257.16
2022-11-27T12:03:33.536Z,100258.50
2022-11-27T12:06:01.431Z,100248.22
2022-11-27T12:08:32.930Z,100253.19
2022-11-27T12:11:00.804Z,100239.41
2022-11-27T12:13:32.954Z,100237.97
2022-11-27T12:16:01.244Z,100232.38
2022-11-27T12:18:29.184Z,100217.84
2022-11-27T12:20:58.895Z,100208.75
2022-11-27T12:23:28.588Z,100204.75
2022-11-27T12:25:56.649Z,100192.75
2022-11-27T12:28:24.549Z,100194.34
2022-11-27T12:30:52.332Z,100182.47
2022-11-27T12:33:21.766Z,100175.06
2022-11-27T12:35:49.639Z,100177.63
2022-11-27T12:38:17.535Z,100165.88
2022-11-27T12:40:45.758Z,100159.66
2022-11-27T12:43:13.587Z,100162.34
2022-11-27T12:45:41.690Z,100153.34
2022-11-27T12:48:09.833Z,100145.25
2022-11-27T12:50:37.997Z,100143.16
2022-11-27T12:53:05.869Z,100128.63
2022-11-27T12:55:33.799Z,100139.03
2022-11-27T12:58:04.064Z,100133.69
2022-11-27T13:00:31.949Z,100130.75
2022-11-27T13:03:00.253Z,100133.44
2022-11-27T13:05:28.418Z,100134.53
2022-11-27T13:07:56.346Z,100124.97
2022-11-27T13:10:24.837Z,100130.53
2022-11-27T13:12:53.118Z,100130.81
2022-11-27T13:15:20.818Z,100132.16
2022-11-27T13:17:48.856Z,100121.88
2022-11-27T13:20:16.796Z,100107.31
2022-11-27T13:22:46.103Z,100101.47
2022-11-27T13:25:14.636Z,100095.81
2022-11-27T13:27:42.501Z,100084.75
2022-11-27T13:30:10.306Z,100084.16
2022-11-27T13:32:38.317Z,100067.56
2022-11-27T13:35:06.920Z,100061.88
2022-11-27T13:37:34.830Z,100046.38
2022-11-27T13:40:03.172Z,100051.38
2022-11-27T13:42:31.163Z,100042.88
2022-11-27T13:44:59.065Z,100042.38
2022-11-27T13:47:29.250Z,100044.59
2022-11-27T13:49:57.079Z,100047.63
2022-11-27T13:52:24.943Z,100052.34
2022-11-27T13:54:52.941Z,100047.25
2022-11-27T13:57:21.431Z,100046.63
2022-11-27T13:59:51.282Z,100030.06
2022-11-27T14:02:19.435Z,100032.97
2022-11-27T14:04:50.555Z,100037.59
2022-11-27T14:07:20.883Z,100040.34
2022-11-27T14:09:48.722Z,100026.19
2022-11-27T14:12:17.334Z,100025.47
2022-11-27T14:14:45.560Z,100018.44
2022-11-27T14:17:13.490Z,100021.09
2022-11-27T14:19:41.419Z,100022.34
2022-11-27T14:22:09.413Z,100033.91
2022-11-27T14:24:41.737Z,100036.72
2022-11-27T14:27:09.980Z,100041.19
2022-11-27T14:29:37.827Z,100036.84
2022-11-27T14:32:05.770Z,100044.81
2022-11-27T14:34:33.754Z,100044.81
2022-11-27T14:37:02.106Z,100033.56
2022-11-27T14:39:30.182Z,100031.88
2022-11-27T14:41:58.151Z,100037.31
2022-11-27T14:44:25.910Z,100028.59
2022-11-27T14:46:53.906Z,100028.84
2022-11-27T14:49:22.282Z,100032.44
2022-11-27T14:51:50.941Z,100038.03
2022-11-27T14:54:18.739Z,100036.34
2022-11-27T14:56:46.698Z,100033.91
2022-11-27T14:59:14.593Z,100035.72
2022-11-27T15:01:43.281Z,100036.56
2022-11-27T15:04:11.208Z,100032.19
2022-11-27T15:06:39.030Z,100032.44
2022-11-27T15:09:30.759Z,100029.78
2022-11-27T15:11:56.980Z,100031.72
2022-11-27T15:14:25.039Z,100037.06
2022-11-27T15:16:53.325Z,100034.50
2022-11-27T15:19:21.394Z,100026.41
2022-11-27T15:21:49.583Z,100027.38
2022-11-27T15:24:18.286Z,100032.81
2022-11-27T15:26:46.482Z,100032.91
2022-11-27T15:29:14.261Z,100022.28
2022-11-27T15:31:42.255Z,100018.88
2022-11-27T15:34:10.200Z,100012.84
2022-11-27T15:36:39.792Z,100017.31
2022-11-27T15:39:07.646Z,100001.59
2022-11-27T15:41:39.500Z,99999.28
2022-11-27T15:44:10.270Z,99983.78
2022-11-27T15:46:38.270Z,99980.63
2022-11-27T15:49:06.790Z,99991.69
2022-11-27T15:51:34.750Z,99990.47
2022-11-27T15:54:02.645Z,99990.34
2022-11-27T15:56:30.562Z,99998.06
2022-11-27T15:58:58.501Z,99987.00
2022-11-27T16:01:26.497Z,99996.19
2022-11-27T16:03:54.700Z,99998.25
2022-11-27T16:06:23.731Z,99995.78
2022-11-27T16:08:51.680Z,99998.69
2022-11-27T16:11:19.959Z,99996.59
2022-11-27T16:13:48.169Z,99999.84
2022-11-27T16:16:16.320Z,99997.97
2022-11-27T16:18:44.330Z,99993.66
2022-11-27T16:21:12.303Z,99983.81
2022-11-27T16:23:41.339Z,99969.28
2022-11-27T16:26:09.764Z,99962.28
2022-11-27T16:28:37.606Z,99967.59
2022-11-27T16:31:05.633Z,99967.59
2022-11-27T16:33:33.400Z,99956.22
2022-11-27T16:36:02.789Z,99964.19
2022-11-27T16:38:30.984Z,99950.06
2022-11-27T16:40:58.768Z,99944.88
2022-11-27T16:43:26.529Z,99944.13
2022-11-27T16:45:54.576Z,99938.94
2022-11-27T16:48:23.502Z,99945.09
2022-11-27T16:50:51.696Z,99932.66
2022-11-27T16:53:19.590Z,99934.47
2022-11-27T16:55:47.441Z,99931.94
2022-11-27T16:58:15.309Z,99927.47
2022-11-27T17:00:44.095Z,99929.16
2022-11-27T17:03:12.077Z,99914.19
2022-11-27T17:05:39.899Z,99909.84
2022-11-27T17:08:08.169Z,99911.75
2022-11-27T17:10:36.135Z,99918.75
2022-11-27T17:13:04.035Z,99914.53
2022-11-27T17:15:36.375Z,99916.44
2022-11-27T17:18:08.117Z,99905.00
2022-11-27T17:20:36.030Z,99902.34
2022-11-27T17:23:03.885Z,99904.03
2022-11-27T17:25:33.240Z,99905.00
2022-11-27T17:28:01.159Z,99900.75
2022-11-27T17:30:28.957Z,99884.19
2022-11-27T17:32:58.287Z,99881.78
2022-11-27T17:35:26.271Z,99877.41
2022-11-27T17:37:54.494Z,99870.41
2022-11-27T17:40:22.379Z,99872.31
2022-11-27T17:42:50.428Z,99878.69
2022-11-27T17:45:18.314Z,99878.31
2022-11-27T17:47:46.173Z,99878.31
2022-11-27T17:50:17.712Z,99874.78
2022-11-27T17:52:45.614Z,99866.00
2022-11-27T17:55:13.404Z,99861.66
2022-11-27T17:57:41.503Z,99865.47
2022-11-27T18:00:09.378Z,99855.31
2022-11-27T18:02:37.740Z,99841.41
2022-11-27T18:05:05.834Z,99852.88
2022-11-27T18:07:33.733Z,99850.22
2022-11-27T18:10:01.647Z,99840.56
2022-11-27T18:12:29.859Z,99841.31
2022-11-27T18:15:01.256Z,99821.78
2022-11-27T18:17:29.386Z,99812.00
2022-11-27T18:19:59.294Z,99812.97
2022-11-27T18:22:27.068Z,99808.50
2022-11-27T18:24:54.878Z,99795.13
2022-11-27T18:27:23.540Z,99795.75
2022-11-27T18:29:51.474Z,99793.81
2022-11-27T18:32:19.462Z,99779.59
2022-11-27T18:34:47.766Z,99781.28
2022-11-27T18:37:15.517Z,99783.72
2022-11-27T18:39:46.011Z,99780.00
2022-11-27T18:42:14.015Z,99783.38
2022-11-27T18:44:44.860Z,99783.25
2022-11-27T18:47:13.274Z,99789.16
2022-11-27T18:49:41.409Z,99791.63
2022-11-27T18:52:11.129Z,99800.31
2022-11-27T18:54:39.013Z,99799.34
2022-11-27T18:57:07.424Z,99796.59
2022-11-27T18:59:35.374Z,99782.34
2022-11-27T19:02:03.334Z,99765.44
2022-11-27T19:04:33.196Z,99765.34
2022-11-27T19:07:01.058Z,99762.59
2022-11-27T19:09:29.075Z,99765.09
2022-11-27T19:11:57.179Z,99764.28
2022-11-27T19:14:25.089Z,99759.78
2022-11-27T19:16:53.566Z,99760.66
2022-11-27T19:22:11.148Z,99752.69
2022-11-27T19:24:39.086Z,99752.69
2022-11-27T19:27:09.063Z,99744.00
2022-11-27T19:29:36.852Z,99739.75
2022-11-27T19:32:04.881Z,99741.78
2022-11-27T19:34:32.775Z,99735.16
2022-11-27T19:37:00.653Z,99719.53
2022-11-27T19:39:29.724Z,99711.81
2022-11-27T19:41:58.641Z,99714.72
2022-11-27T19:44:26.473Z,99701.66
2022-11-27T19:46:54.298Z,99696.59
2022-11-27T19:49:22.088Z,99694.16
2022-11-27T19:51:51.354Z,99686.34
2022-11-27T19:54:20.378Z,99678.59
2022-11-27T19:56:48.262Z,99664.59
2022-11-27T19:59:16.197Z,99670.16
2022-11-27T20:01:44.755Z,99659.75
2022-11-27T20:04:16.306Z,99659.88
2022-11-27T20:06:44.239Z,99660.81
2022-11-27T20:09:14.221Z,99649.38
2022-11-27T20:11:42.022Z,99640.56
2022-11-27T20:14:09.884Z,99634.28
2022-11-27T20:16:38.511Z,99635.88
2022-11-27T20:19:06.520Z,99637.44
2022-11-27T20:21:34.454Z,99641.78
2022-11-27T20:24:02.645Z,99655.81
2022-11-27T20:26:30.864Z,99663.63
2022-11-27T20:28:59.110Z,99680.16
2022-11-27T20:31:27.037Z,99675.56
2022-11-27T20:33:54.985Z,99680.69
2022-11-27T20:36:22.841Z,99678.75
2022-11-27T20:38:50.746Z,99674.28
2022-11-27T20:41:20.097Z,99688.19
2022-11-27T20:43:47.896Z,99693.25
2022-11-27T20:46:16.020Z,99676.13
2022-11-27T20:48:43.859Z,99681.19
2022-11-27T20:51:11.595Z,99666.00
2022-11-27T20:53:41.376Z,99663.34
2022-11-27T20:56:09.213Z,99658.03
2022-11-27T20:58:37.033Z,99653.69
2022-11-27T21:01:05.148Z,99654.66
2022-11-27T21:03:32.961Z,99649.34
2022-11-27T21:06:01.958Z,99643.19
2022-11-27T21:08:31.179Z,99645.72
2022-11-27T21:10:59.020Z,99633.31
2022-11-27T21:13:26.897Z,99616.41
2022-11-27T21:15:54.929Z,99625.22
2022-11-27T21:18:24.595Z,99619.78
2022-11-27T21:20:52.569Z,99617.03
2022-11-27T21:23:21.080Z,99609.06
2022-11-27T21:25:48.993Z,99612.53
2022-11-27T21:28:16.851Z,99609.78
2022-11-27T21:30:49.356Z,99610.50
2022-11-27T21:33:17.263Z,99593.50
2022-11-27T21:35:45.012Z,99587.22
2022-11-27T21:38:12.923Z,99582.66
2022-11-27T21:40:40.697Z,99594.69
2022-11-27T21:43:08.980Z,99588.41
2022-11-27T21:45:37.037Z,99604.25
2022-11-27T21:48:05.396Z,99603.16
2022-11-27T21:50:34.759Z,99612.56
2022-11-27T21:53:02.979Z,99601.72
2022-11-27T21:55:33.119Z,99592.66
2022-11-27T21:58:00.931Z,99587.09
2022-11-27T22:00:28.980Z,99593.03
2022-11-27T22:02:56.972Z,99592.03
2022-11-27T22:05:24.841Z,99587.59
2022-11-27T22:07:53.385Z,99587.34
2022-11-27T22:10:21.173Z,99587.34
2022-11-27T22:12:48.948Z,99577.78
2022-11-27T22:15:16.882Z,99563.69
2022-11-27T22:17:44.638Z,99569.94
2022-11-27T22:20:12.565Z,99555.84
2022-11-27T22:22:40.430Z,99566.47
2022-11-27T22:25:08.248Z,99561.25
2022-11-27T22:27:36.003Z,99549.91
2022-11-27T22:30:03.993Z,99542.91
2022-11-27T22:32:32.296Z,99536.03
2022-11-27T22:35:00.404Z,99529.88
2022-11-27T22:37:28.216Z,99527.22
2022-11-27T22:39:56.158Z,99512.25
2022-11-27T22:42:23.871Z,99507.91
2022-11-27T22:44:54.032Z,99504.44
2022-11-27T22:47:21.800Z,99486.78
2022-11-27T22:49:49.655Z,99475.34
2022-11-27T22:52:17.498Z,99475.34
2022-11-27T22:54:45.274Z,99475.34
2022-11-27T22:57:16.682Z,99481.34
2022-11-27T22:59:44.455Z,99479.56
2022-11-27T23:02:12.379Z,99478.59
2022-11-27T23:04:40.365Z,99492.69
2022-11-27T23:07:08.485Z,99505.84
2022-11-27T23:09:36.745Z,99510.44
2022-11-27T23:12:04.462Z,99518.78
2022-11-27T23:14:32.230Z,99520.00
2022-11-27T23:16:59.932Z,99511.91
2022-11-27T23:19:27.996Z,99520.97
2022-11-27T23:21:57.597Z,99506.09
2022-11-27T23:24:25.384Z,99513.63
2022-11-27T23:26:53.062Z,99513.03
2022-11-27T23:29:20.864Z,99518.91
2022-11-27T23:31:48.606Z,99505.78
2022-11-27T23:34:17.638Z,99506.72
2022-11-27T23:36:45.338Z,99504.78
2022-11-27T23:39:13.043Z,99507.81
2022-11-27T23:41:41.109Z,99500.22
2022-11-27T23:44:08.759Z,99496.69
2022-11-27T23:46:36.720Z,99494.91
2022-11-27T23:49:04.420Z,99495.00
2022-11-27T23:51:32.160Z,99487.81
2022-11-27T23:53:59.829Z,99481.16
2022-11-27T23:56:27.410Z,99472.72
2022-11-27T23:58:56.351Z,99473.34
